createdAt,value
2023-03-22T00:02:08.722Z,8.70
2023-03-22T00:04:37.149Z,11.20
2023-03-22T00:07:04.320Z,9.93
2023-03-22T00:09:31.504Z,9.73
2023-03-22T00:11:58.572Z,7.83
2023-03-22T00:14:25.644Z,8.27
2023-03-22T00:16:52.769Z,11.43
2023-03-22T00:19:19.951Z,8.50
2023-03-22T00:21:48.375Z,10.93
2023-03-22T00:24:15.449Z,7.93
2023-03-22T00:26:42.517Z,10.57
2023-03-22T00:29:09.678Z,10.27
2023-03-22T00:31:36.793Z,9.40
2023-03-22T00:34:04.079Z,7.30
2023-03-22T00:36:31.781Z,9.73
2023-03-22T00:39:00.202Z,9.03
2023-03-22T00:41:27.262Z,10.30
2023-03-22T00:43:54.302Z,10.03
2023-03-22T00:46:21.635Z,11.80
2023-03-22T00:48:49.140Z,15.20
2023-03-22T00:51:16.269Z,9.23
2023-03-22T00:53:43.965Z,10.53
2023-03-22T00:56:13.184Z,13.00
2023-03-22T00:58:45.232Z,7.80
2023-03-22T01:01:12.700Z,13.83
2023-03-22T01:03:39.993Z,11.83
2023-03-22T01:06:08.393Z,11.10
2023-03-22T01:08:35.522Z,13.73
2023-03-22T01:11:02.644Z,13.00
2023-03-22T01:13:31.145Z,11.40
2023-03-22T01:15:58.283Z,11.20
2023-03-22T01:18:25.501Z,15.47
2023-03-22T01:20:52.683Z,12.30
2023-03-22T01:23:19.870Z,15.00
2023-03-22T01:25:47.615Z,10.50
2023-03-22T01:28:14.748Z,12.40
2023-03-22T01:30:43.411Z,11.13
2023-03-22T01:33:10.622Z,15.80
2023-03-22T01:35:37.822Z,12.80
2023-03-22T01:38:06.150Z,11.17
2023-03-22T01:40:37.403Z,12.63
2023-03-22T01:43:04.730Z,18.70
2023-03-22T01:45:36.400Z,14.13
2023-03-22T01:48:08.351Z,11.87
2023-03-22T01:50:39.123Z,14.20
2023-03-22T01:53:08.628Z,17.23
2023-03-22T01:55:37.440Z,15.40
2023-03-22T01:58:09.519Z,15.43
2023-03-22T02:00:47.226Z,11.70
2023-03-22T02:03:33.146Z,15.20
2023-03-22T02:06:00.350Z,12.57
2023-03-22T02:08:27.677Z,15.63
2023-03-22T02:10:59.006Z,12.43
2023-03-22T02:13:34.167Z,18.50
2023-03-22T02:16:24.305Z,14.17
2023-03-22T02:19:03.198Z,14.90
2023-03-22T02:21:39.387Z,12.43
2023-03-22T02:24:14.256Z,15.23
2023-03-22T02:26:59.076Z,16.87
2023-03-22T02:29:30.265Z,12.90
2023-03-22T02:32:24.106Z,14.60
2023-03-22T02:35:09.311Z,14.83
2023-03-22T02:37:51.455Z,13.13
2023-03-22T02:40:25.667Z,17.00
2023-03-22T02:42:57.003Z,13.30
2023-03-22T02:45:26.898Z,11.93
2023-03-22T02:47:56.655Z,20.00
2023-03-22T02:50:25.551Z,15.80
2023-03-22T02:52:54.508Z,17.47
2023-03-22T02:55:24.800Z,14.13
2023-03-22T02:57:54.841Z,13.77
2023-03-22T03:00:21.942Z,16.47
2023-03-22T03:02:50.644Z,17.50
2023-03-22T03:05:18.758Z,15.30
2023-03-22T03:07:47.660Z,16.53
2023-03-22T03:10:16.099Z,15.97
2023-03-22T03:12:44.804Z,16.90
2023-03-22T03:15:13.154Z,16.17
2023-03-22T03:17:46.800Z,14.50
2023-03-22T03:20:21.709Z,14.87
2023-03-22T03:22:55.814Z,16.83
2023-03-22T03:25:25.448Z,18.53
2023-03-22T03:27:58.777Z,17.60
2023-03-22T03:30:30.258Z,16.33
2023-03-22T03:32:59.746Z,17.00
2023-03-22T03:35:30.128Z,15.73
2023-03-22T03:37:58.838Z,17.10
2023-03-22T03:40:27.305Z,19.60
2023-03-22T03:42:56.877Z,15.90
2023-03-22T03:45:24.325Z,17.20
2023-03-22T03:47:53.511Z,17.73
2023-03-22T03:50:20.600Z,22.00
2023-03-22T03:52:47.730Z,16.07
2023-03-22T03:55:14.854Z,20.40
2023-03-22T03:57:41.962Z,14.40
2023-03-22T04:00:11.312Z,18.83
2023-03-22T04:02:41.450Z,15.50
2023-03-22T04:05:16.892Z,13.43
2023-03-22T04:07:44.099Z,16.67
2023-03-22T04:10:11.706Z,20.33
2023-03-22T04:12:38.788Z,13.83
2023-03-22T04:15:15.597Z,20.30
2023-03-22T04:17:45.127Z,17.57
2023-03-22T04:20:12.756Z,20.53
2023-03-22T04:22:41.294Z,22.33
2023-03-22T04:25:09.776Z,14.73
2023-03-22T04:27:36.992Z,15.77
2023-03-22T04:30:09.875Z,14.67
2023-03-22T04:32:58.585Z,15.03
2023-03-22T04:35:38.547Z,15.40
2023-03-22T04:38:05.766Z,16.73
2023-03-22T04:40:33.439Z,21.70
2023-03-22T04:43:04.253Z,14.63
2023-03-22T04:45:55.234Z,17.83
2023-03-22T04:48:27.711Z,16.70
2023-03-22T04:50:55.374Z,18.20
2023-03-22T04:53:26.208Z,19.87
2023-03-22T04:55:55.303Z,18.80
2023-03-22T04:58:22.653Z,18.40
2023-03-22T05:00:50.571Z,10.83
2023-03-22T05:03:17.668Z,15.00
2023-03-22T05:05:51.200Z,15.40
2023-03-22T05:08:19.184Z,12.87
2023-03-22T05:10:48.374Z,12.80
2023-03-22T05:13:15.496Z,10.03
2023-03-22T05:15:45.376Z,17.20
2023-03-22T05:18:14.540Z,14.20
2023-03-22T05:20:42.137Z,15.80
2023-03-22T05:23:18.130Z,15.47
2023-03-22T05:25:47.239Z,16.37
2023-03-22T05:28:17.228Z,11.13
2023-03-22T05:31:04.947Z,13.67
2023-03-22T05:33:55.069Z,10.23
2023-03-22T05:36:25.018Z,10.47
2023-03-22T05:39:20.189Z,13.43
2023-03-22T05:41:47.309Z,11.60
2023-03-22T05:44:14.702Z,15.27
2023-03-22T05:46:51.359Z,13.60
2023-03-22T05:49:34.398Z,11.73
2023-03-22T05:52:02.202Z,14.23
2023-03-22T05:54:39.251Z,14.87
2023-03-22T05:57:06.658Z,11.60
2023-03-22T05:59:33.857Z,10.73
2023-03-22T06:02:01.122Z,12.90
2023-03-22T06:04:29.162Z,17.90
2023-03-22T06:07:00.230Z,13.10
2023-03-22T06:09:36.254Z,12.40
2023-03-22T06:12:08.163Z,14.10
2023-03-22T06:14:35.980Z,16.30
2023-03-22T06:17:18.368Z,12.53
2023-03-22T06:19:47.619Z,12.73
2023-03-22T06:22:15.493Z,13.63
2023-03-22T06:24:43.599Z,15.47
2023-03-22T06:27:16.863Z,15.33
2023-03-22T06:29:44.134Z,13.07
2023-03-22T06:32:12.128Z,13.37
2023-03-22T06:34:39.288Z,13.53
2023-03-22T06:37:07.153Z,12.30
2023-03-22T06:39:37.581Z,18.03
2023-03-22T06:42:04.762Z,14.20
2023-03-22T06:44:33.998Z,10.93
2023-03-22T06:47:16.487Z,15.63
2023-03-22T06:50:12.637Z,11.27
2023-03-22T06:52:54.776Z,12.47
2023-03-22T06:55:22.155Z,16.60
2023-03-22T06:57:49.919Z,11.37
2023-03-22T07:00:19.048Z,13.13
2023-03-22T07:02:46.306Z,14.27
2023-03-22T07:05:21.122Z,15.43
2023-03-22T07:07:48.495Z,16.57
2023-03-22T07:10:15.695Z,11.53
2023-03-22T07:12:42.815Z,15.53
2023-03-22T07:15:14.360Z,13.30
2023-03-22T07:18:11.778Z,12.00
2023-03-22T07:20:39.319Z,14.00
2023-03-22T07:23:06.915Z,13.20
2023-03-22T07:25:40.889Z,10.00
2023-03-22T07:28:25.747Z,10.23
2023-03-22T07:31:00.036Z,14.87
2023-03-22T07:33:28.860Z,7.90
2023-03-22T07:35:56.949Z,9.97
2023-03-22T07:38:24.265Z,8.23
2023-03-22T07:40:52.663Z,8.90
2023-03-22T07:43:20.095Z,9.73
2023-03-22T07:45:56.562Z,5.90
2023-03-22T07:48:52.545Z,8.67
2023-03-22T07:51:38.069Z,15.00
2023-03-22T07:54:07.499Z,4.50
2023-03-22T07:56:34.805Z,6.27
2023-03-22T07:59:02.162Z,6.07
2023-03-22T08:01:30.743Z,6.93
2023-03-22T08:04:09.657Z,9.27
2023-03-22T08:07:02.829Z,4.10
2023-03-22T08:09:30.003Z,5.13
2023-03-22T08:11:57.455Z,14.03
2023-03-22T08:14:35.481Z,11.50
2023-03-22T08:17:04.872Z,6.90
2023-03-22T08:19:33.643Z,6.33
2023-03-22T08:22:01.079Z,7.50
2023-03-22T08:24:48.424Z,8.20
2023-03-22T08:27:25.404Z,8.93
2023-03-22T08:29:52.578Z,7.03
2023-03-22T08:32:19.691Z,5.57
2023-03-22T08:34:48.139Z,5.73
2023-03-22T08:37:15.225Z,7.37
2023-03-22T08:39:44.734Z,5.40
2023-03-22T08:42:33.447Z,7.17
2023-03-22T08:45:02.106Z,9.90
2023-03-22T08:47:30.358Z,4.10
2023-03-22T08:50:03.023Z,3.03
2023-03-22T08:52:56.353Z,7.97
2023-03-22T08:55:27.522Z,3.33
2023-03-22T08:58:09.530Z,4.47
2023-03-22T09:01:11.648Z,7.43
2023-03-22T09:03:44.316Z,2.73
2023-03-22T09:06:13.496Z,4.10
2023-03-22T09:08:42.595Z,5.40
2023-03-22T09:11:14.652Z,7.00
2023-03-22T09:13:43.424Z,5.73
2023-03-22T09:16:10.689Z,4.40
2023-03-22T09:18:39.234Z,3.77
2023-03-22T09:21:13.223Z,5.80
2023-03-22T09:23:50.505Z,5.17
2023-03-22T09:26:20.188Z,4.87
2023-03-22T09:28:50.566Z,2.93
2023-03-22T09:31:20.324Z,6.53
2023-03-22T09:33:49.525Z,2.70
2023-03-22T09:36:17.954Z,3.20
2023-03-22T09:38:45.079Z,4.93
2023-03-22T09:41:14.073Z,3.23
2023-03-22T09:43:43.334Z,3.57
2023-03-22T09:46:14.621Z,4.77
2023-03-22T09:48:43.210Z,3.53
2023-03-22T09:51:17.048Z,4.40
2023-03-22T09:53:45.446Z,3.30
2023-03-22T09:56:15.213Z,6.53
2023-03-22T09:58:47.033Z,4.00
2023-03-22T10:01:19.615Z,2.53
2023-03-22T10:03:59.737Z,11.10
2023-03-22T10:06:28.981Z,4.03
2023-03-22T10:09:01.849Z,2.20
2023-03-22T10:11:34.503Z,3.10
2023-03-22T10:14:03.226Z,2.20
2023-03-22T10:16:32.491Z,4.13
2023-03-22T10:19:03.842Z,2.53
2023-03-22T10:21:30.926Z,4.30
2023-03-22T10:24:01.048Z,5.40
2023-03-22T10:26:29.009Z,2.13
2023-03-22T10:28:57.731Z,4.40
2023-03-22T10:31:25.161Z,6.13
2023-03-22T10:33:55.228Z,3.70
2023-03-22T10:36:24.434Z,6.07
2023-03-22T10:38:53.382Z,9.37
2023-03-22T10:41:23.990Z,10.00
2023-03-22T10:43:52.428Z,5.03
2023-03-22T10:46:21.173Z,6.03
2023-03-22T10:48:50.243Z,4.67
2023-03-22T10:51:21.086Z,2.50
2023-03-22T10:53:49.983Z,5.73
2023-03-22T10:56:17.840Z,7.30
2023-03-22T10:58:46.702Z,5.00
2023-03-22T11:01:14.966Z,2.50
2023-03-22T11:03:42.993Z,3.73
2023-03-22T11:06:11.900Z,7.80
2023-03-22T11:08:39.777Z,1.60
2023-03-22T11:11:15.777Z,6.40
2023-03-22T11:13:43.098Z,1.43
2023-03-22T11:16:11.751Z,3.13
2023-03-22T11:18:41.980Z,7.50
2023-03-22T11:21:11.041Z,4.60
2023-03-22T11:23:39.406Z,4.47
2023-03-22T11:26:08.292Z,6.63
2023-03-22T11:28:36.458Z,6.80
2023-03-22T11:31:05.944Z,2.87
2023-03-22T11:33:35.314Z,1.77
2023-03-22T11:36:03.402Z,1.70
2023-03-22T11:38:35.598Z,2.70
2023-03-22T11:41:03.815Z,3.77
2023-03-22T11:43:36.095Z,2.73
2023-03-22T11:46:03.615Z,2.10
2023-03-22T11:48:32.354Z,3.63
2023-03-22T11:51:05.164Z,6.10
2023-03-22T11:53:33.654Z,3.43
2023-03-22T11:56:01.077Z,1.97
2023-03-22T11:58:29.706Z,5.37
2023-03-22T12:00:59.483Z,3.03
2023-03-22T12:03:28.489Z,2.93
2023-03-22T12:05:55.869Z,3.27
2023-03-22T12:08:26.797Z,2.57
2023-03-22T12:10:57.042Z,5.07
2023-03-22T12:13:25.842Z,2.30
2023-03-22T12:15:54.684Z,5.87
2023-03-22T12:18:26.791Z,4.33
2023-03-22T12:20:55.140Z,4.13
2023-03-22T12:23:23.519Z,4.00
2023-03-22T12:25:54.057Z,3.97
2023-03-22T12:28:22.850Z,3.13
2023-03-22T12:30:51.915Z,2.13
2023-03-22T12:33:21.632Z,6.00
2023-03-22T12:35:50.244Z,6.83
2023-03-22T12:38:23.408Z,2.20
2023-03-22T12:40:53.166Z,4.83
2023-03-22T12:43:26.325Z,10.63
2023-03-22T12:45:55.925Z,3.73
2023-03-22T12:48:28.465Z,5.40
2023-03-22T12:50:57.362Z,3.40
2023-03-22T12:53:26.884Z,3.43
2023-03-22T12:55:55.800Z,3.43
2023-03-22T12:58:24.058Z,4.30
2023-03-22T13:00:53.473Z,3.20
2023-03-22T13:03:23.764Z,2.87
2023-03-22T13:05:59.390Z,7.33
2023-03-22T13:08:26.773Z,2.93
2023-03-22T13:11:02.735Z,5.90
2023-03-22T13:13:47.549Z,2.03
2023-03-22T13:16:16.331Z,3.90
2023-03-22T13:18:57.692Z,4.90
2023-03-22T13:21:25.574Z,2.33
2023-03-22T13:23:57.365Z,3.17
2023-03-22T13:26:28.427Z,2.60
2023-03-22T13:28:57.132Z,3.33
2023-03-22T13:31:33.024Z,3.50
2023-03-22T13:34:01.805Z,6.93
2023-03-22T13:36:30.584Z,7.73
2023-03-22T13:38:58.734Z,4.83
2023-03-22T13:41:29.648Z,5.73
2023-03-22T13:43:58.200Z,3.43
2023-03-22T13:46:45.200Z,6.03
2023-03-22T13:49:23.985Z,6.53
2023-03-22T13:51:51.672Z,5.73
2023-03-22T13:54:21.308Z,3.67
2023-03-22T13:56:51.956Z,3.93
2023-03-22T13:59:20.374Z,2.03
2023-03-22T14:01:48.719Z,3.33
2023-03-22T14:04:17.224Z,6.10
2023-03-22T14:06:48.520Z,2.00
2023-03-22T14:09:21.508Z,5.23
2023-03-22T14:11:55.220Z,4.33
2023-03-22T14:14:26.638Z,4.87
2023-03-22T14:16:59.200Z,8.70
2023-03-22T14:19:29.077Z,4.60
